createdAt,value
2022-11-03T00:00:13.709Z,12.50
2022-11-03T00:01:13.855Z,12.40
2022-11-03T00:02:13.304Z,12.80
2022-11-03T00:03:13.699Z,12.50
2022-11-03T00:04:13.622Z,12.70
2022-11-03T00:05:13.599Z,12.90
2022-11-03T00:06:13.517Z,12.50
2022-11-03T00:07:13.306Z,12.50
2022-11-03T00:08:13.229Z,12.60
2022-11-03T00:09:22.941Z,12.80
2022-11-03T00:10:12.985Z,12.90
2022-11-03T00:11:12.962Z,12.90
2022-11-03T00:12:13.005Z,12.80
2022-11-03T00:13:13.198Z,12.70
2022-11-03T00:14:13.071Z,12.60
2022-11-03T00:15:12.961Z,12.70
2022-11-03T00:16:12.893Z,12.80
2022-11-03T00:17:13.781Z,12.70
2022-11-03T00:18:13.756Z,12.90
2022-11-03T00:19:13.761Z,13.00
2022-11-03T00:20:13.630Z,12.90
2022-11-03T00:21:13.586Z,12.60
2022-11-03T00:22:13.658Z,12.70
2022-11-03T00:23:13.648Z,12.80
2022-11-03T00:24:13.555Z,13.00
2022-11-03T00:25:13.546Z,13.00
2022-11-03T00:26:13.461Z,12.80
2022-11-03T00:27:13.387Z,12.70
2022-11-03T00:28:13.466Z,12.90
2022-11-03T00:29:13.629Z,12.90
2022-11-03T00:30:13.461Z,12.70
2022-11-03T00:31:13.537Z,12.80
2022-11-03T00:32:13.399Z,12.80
2022-11-03T00:33:13.269Z,12.90
2022-11-03T00:34:13.370Z,12.90
2022-11-03T00:35:13.223Z,12.80
2022-11-03T00:36:13.230Z,13.00
2022-11-03T00:37:13.273Z,12.90
2022-11-03T00:38:13.167Z,12.50
2022-11-03T00:39:13.465Z,12.40
2022-11-03T00:40:13.336Z,12.60
2022-11-03T00:41:13.562Z,12.60
2022-11-03T00:42:13.590Z,12.50
2022-11-03T00:43:27.689Z,12.70
2022-11-03T00:44:14.015Z,12.50
2022-11-03T00:45:13.036Z,12.40
2022-11-03T00:46:12.962Z,12.70
2022-11-03T00:47:13.265Z,12.70
2022-11-03T00:48:13.433Z,12.50
2022-11-03T00:49:13.723Z,12.70
2022-11-03T00:50:13.606Z,12.60
2022-11-03T00:51:13.523Z,12.40
2022-11-03T00:52:18.579Z,12.40
2022-11-03T00:53:13.851Z,12.50
2022-11-03T00:54:14.072Z,12.40
2022-11-03T00:55:12.978Z,12.50
2022-11-03T00:56:18.023Z,12.20
2022-11-03T00:57:13.062Z,12.40
2022-11-03T00:58:12.982Z,12.60
2022-11-03T00:59:13.143Z,12.40
2022-11-03T01:00:13.221Z,12.60
2022-11-03T01:01:13.757Z,12.50
2022-11-03T01:02:14.028Z,12.50
2022-11-03T01:03:13.195Z,12.40
2022-11-03T01:04:13.414Z,12.40
2022-11-03T01:05:13.319Z,12.50
2022-11-03T01:06:13.148Z,12.50
2022-11-03T01:07:13.084Z,12.40
2022-11-03T01:08:13.040Z,12.40
2022-11-03T01:09:13.217Z,12.50
2022-11-03T01:10:13.395Z,12.50
2022-11-03T01:11:13.740Z,12.40
2022-11-03T01:12:13.607Z,12.70
2022-11-03T01:13:13.579Z,12.30
2022-11-03T01:14:13.645Z,12.50
2022-11-03T01:15:13.481Z,12.40
2022-11-03T01:16:13.731Z,12.50
2022-11-03T01:17:13.933Z,12.60
2022-11-03T01:18:13.081Z,12.30
2022-11-03T01:19:13.112Z,12.60
2022-11-03T01:20:13.012Z,12.60
2022-11-03T01:21:13.160Z,12.70
2022-11-03T01:22:12.985Z,12.40
2022-11-03T01:23:13.355Z,12.70
2022-11-03T01:24:13.716Z,12.70
2022-11-03T01:25:13.598Z,12.40
2022-11-03T01:26:13.601Z,12.40
2022-11-03T01:27:13.529Z,12.70
2022-11-03T01:28:13.328Z,12.50
2022-11-03T01:29:13.183Z,12.60
2022-11-03T01:30:13.099Z,12.50
2022-11-03T01:31:12.943Z,12.40
2022-11-03T01:32:12.889Z,12.30
2022-11-03T01:33:14.193Z,12.40
2022-11-03T01:34:14.222Z,12.50
2022-11-03T01:35:13.131Z,12.50
2022-11-03T01:36:13.088Z,12.60
2022-11-03T01:37:13.077Z,12.50
2022-11-03T01:38:13.209Z,12.60
2022-11-03T01:39:13.212Z,12.80
2022-11-03T01:40:13.298Z,12.60
2022-11-03T01:41:13.156Z,12.50
2022-11-03T01:42:13.168Z,12.40
2022-11-03T01:43:13.288Z,12.60
2022-11-03T01:44:13.195Z,12.60
2022-11-03T01:45:13.113Z,12.40
2022-11-03T01:46:13.017Z,12.50
2022-11-03T01:47:13.003Z,12.50
2022-11-03T01:48:13.168Z,12.40
2022-11-03T01:49:13.483Z,12.60
2022-11-03T01:50:13.752Z,12.50
2022-11-03T01:51:13.699Z,12.50
2022-11-03T01:52:13.559Z,12.40
2022-11-03T01:53:13.392Z,12.40
2022-11-03T01:54:13.639Z,12.60
2022-11-03T01:55:13.589Z,12.60
2022-11-03T01:56:13.480Z,12.60
2022-11-03T01:57:13.375Z,12.70
2022-11-03T01:58:13.337Z,12.70
2022-11-03T01:59:13.373Z,12.30
2022-11-03T02:00:13.358Z,12.50
2022-11-03T02:01:13.508Z,12.50
2022-11-03T02:02:13.601Z,12.50
2022-11-03T02:03:13.565Z,12.70
2022-11-03T02:04:13.466Z,12.50
2022-11-03T02:05:13.369Z,12.60
2022-11-03T02:06:13.311Z,12.40
2022-11-03T02:07:13.614Z,12.40
2022-11-03T02:08:13.505Z,12.50
2022-11-03T02:09:13.447Z,12.60
2022-11-03T02:10:13.461Z,12.40
2022-11-03T02:11:13.359Z,12.40
2022-11-03T02:12:13.490Z,12.40
2022-11-03T02:13:13.457Z,12.60
2022-11-03T02:14:13.752Z,12.50
2022-11-03T02:15:13.618Z,12.30
2022-11-03T02:16:13.521Z,12.30
2022-11-03T02:17:13.397Z,12.20
2022-11-03T02:18:13.281Z,12.30
2022-11-03T02:19:13.160Z,12.20
2022-11-03T02:20:13.199Z,12.30
2022-11-03T02:21:13.280Z,12.40
2022-11-03T02:22:13.983Z,12.30
2022-11-03T02:23:12.940Z,12.40
2022-11-03T02:24:12.826Z,12.50
2022-11-03T02:25:13.843Z,12.50
2022-11-03T02:26:13.788Z,12.50
2022-11-03T02:27:13.664Z,12.30
2022-11-03T02:28:13.567Z,12.50
2022-11-03T02:29:13.633Z,12.60
2022-11-03T02:30:13.626Z,12.40
2022-11-03T02:31:13.731Z,12.50
2022-11-03T02:32:14.045Z,12.30
2022-11-03T02:33:13.178Z,12.40
2022-11-03T02:34:13.098Z,12.40
2022-11-03T02:35:13.089Z,12.30
2022-11-03T02:36:13.127Z,12.40
2022-11-03T02:37:13.007Z,12.50
2022-11-03T02:38:17.388Z,12.30
2022-11-03T02:39:13.224Z,12.30
2022-11-03T02:40:13.444Z,12.20
2022-11-03T02:41:13.449Z,12.30
2022-11-03T02:42:13.249Z,12.30
2022-11-03T02:43:13.435Z,12.50
2022-11-03T02:44:13.455Z,12.40
2022-11-03T02:45:17.305Z,12.30
2022-11-03T02:46:14.008Z,12.40
2022-11-03T02:47:13.301Z,12.20
2022-11-03T02:48:13.223Z,12.30
2022-11-03T02:49:13.526Z,12.30
2022-11-03T02:50:13.433Z,12.30
2022-11-03T02:51:13.626Z,12.40
2022-11-03T02:52:13.773Z,12.50
2022-11-03T02:53:13.584Z,12.50
2022-11-03T02:54:13.762Z,12.30
2022-11-03T02:55:15.884Z,12.30
2022-11-03T02:56:13.794Z,12.50
2022-11-03T02:57:13.875Z,12.30
2022-11-03T02:58:14.080Z,12.50
2022-11-03T02:59:12.985Z,12.50
2022-11-03T03:00:42.603Z,12.40
2022-11-03T03:01:13.737Z,12.30
2022-11-03T03:02:13.750Z,12.20
2022-11-03T03:03:13.740Z,12.40
2022-11-03T03:04:13.848Z,12.20
2022-11-03T03:05:13.745Z,12.30
2022-11-03T03:06:28.761Z,12.40
2022-11-03T03:07:13.598Z,12.30
2022-11-03T03:08:13.673Z,12.30
2022-11-03T03:09:13.502Z,12.40
2022-11-03T03:10:13.716Z,12.40
2022-11-03T03:11:13.627Z,12.20
2022-11-03T03:12:13.599Z,12.20
2022-11-03T03:13:13.941Z,12.30
2022-11-03T03:14:12.982Z,12.20
2022-11-03T03:15:12.900Z,12.60
2022-11-03T03:16:12.910Z,12.40
2022-11-03T03:17:12.843Z,12.50
2022-11-03T03:18:14.561Z,12.40
2022-11-03T03:19:13.692Z,12.20
2022-11-03T03:20:14.210Z,12.50
2022-11-03T03:21:13.144Z,12.20
2022-11-03T03:22:13.205Z,12.10
2022-11-03T03:23:13.342Z,12.20
2022-11-03T03:24:13.872Z,12.30
2022-11-03T03:25:14.029Z,12.60
2022-11-03T03:26:13.162Z,12.50
2022-11-03T03:27:13.157Z,12.30
2022-11-03T03:28:13.350Z,12.20
2022-11-03T03:29:13.439Z,12.30
2022-11-03T03:30:13.483Z,12.50
2022-11-03T03:31:13.755Z,12.40
2022-11-03T03:32:13.643Z,12.50
2022-11-03T03:33:13.908Z,12.50
2022-11-03T03:34:33.409Z,12.40
2022-11-03T03:35:12.920Z,12.50
2022-11-03T03:36:12.963Z,12.30
2022-11-03T03:37:12.791Z,12.50
2022-11-03T03:38:13.781Z,12.60
2022-11-03T03:39:13.662Z,12.60
2022-11-03T03:40:13.594Z,12.50
2022-11-03T03:41:13.645Z,12.40
2022-11-03T03:42:13.527Z,12.30
2022-11-03T03:43:13.528Z,12.70
2022-11-03T03:44:13.390Z,12.60
2022-11-03T03:45:13.288Z,12.40
2022-11-03T03:46:13.665Z,12.70
2022-11-03T03:47:14.081Z,12.40
2022-11-03T03:48:13.000Z,12.70
2022-11-03T03:49:12.913Z,12.70
2022-11-03T03:50:12.826Z,12.70
2022-11-03T03:51:14.041Z,12.60
2022-11-03T03:52:13.271Z,12.50
2022-11-03T03:53:13.225Z,12.60
2022-11-03T03:54:13.105Z,12.40
2022-11-03T03:55:13.151Z,12.50
2022-11-03T03:56:13.029Z,12.40
2022-11-03T03:57:12.900Z,12.60
2022-11-03T03:58:12.686Z,12.50
2022-11-03T03:59:13.653Z,12.60
2022-11-03T04:00:13.646Z,12.40
2022-11-03T04:01:13.647Z,12.50
2022-11-03T04:02:13.694Z,12.60
2022-11-03T04:03:13.820Z,12.50
2022-11-03T04:04:13.857Z,12.60
2022-11-03T04:05:13.999Z,12.40
2022-11-03T04:06:13.192Z,12.50
2022-11-03T04:07:13.396Z,12.70
2022-11-03T04:08:13.646Z,12.70
2022-11-03T04:09:13.940Z,12.60
2022-11-03T04:10:12.873Z,12.70
2022-11-03T04:12:41.466Z,12.50
2022-11-03T04:13:13.308Z,12.50
2022-11-03T04:14:13.551Z,12.60
2022-11-03T04:15:13.479Z,12.70
2022-11-03T04:17:13.056Z,12.50
2022-11-03T04:18:13.135Z,12.60
2022-11-03T04:19:13.607Z,12.40
2022-11-03T04:20:13.556Z,12.60
2022-11-03T04:22:31.139Z,12.70
2022-11-03T04:23:13.592Z,12.70
2022-11-03T04:24:14.194Z,12.70
2022-11-03T04:25:13.088Z,12.60
2022-11-03T04:27:14.180Z,12.40
2022-11-03T04:28:13.028Z,12.30
2022-11-03T04:29:13.267Z,12.30
2022-11-03T04:30:13.504Z,12.40
2022-11-03T04:32:13.497Z,12.60
2022-11-03T04:34:13.254Z,12.40
2022-11-03T04:35:29.473Z,12.40
2022-11-03T04:36:13.675Z,12.50
2022-11-03T04:38:36.975Z,12.50
2022-11-03T04:39:13.127Z,12.40
2022-11-03T04:40:13.025Z,12.50
2022-11-03T04:41:13.048Z,12.60
2022-11-03T04:42:29.242Z,12.50
2022-11-03T04:43:28.762Z,12.50
2022-11-03T04:44:13.718Z,12.70
2022-11-03T04:45:13.665Z,12.70
2022-11-03T04:46:13.504Z,12.70
2022-11-03T04:47:44.499Z,12.50
2022-11-03T04:48:13.601Z,12.50
2022-11-03T04:49:13.665Z,12.50
2022-11-03T04:51:25.456Z,12.70
2022-11-03T04:52:13.611Z,12.60
2022-11-03T04:53:14.076Z,12.60
2022-11-03T04:54:38.038Z,12.70
2022-11-03T04:55:12.939Z,12.70
2022-11-03T04:56:13.568Z,12.50
2022-11-03T04:57:13.506Z,12.50
2022-11-03T04:58:26.707Z,12.40
2022-11-03T04:59:13.662Z,12.50
2022-11-03T05:00:19.022Z,12.50
2022-11-03T05:01:13.289Z,12.70
2022-11-03T05:02:13.631Z,12.50
2022-11-03T05:03:13.545Z,12.60
2022-11-03T05:04:13.758Z,12.70
2022-11-03T05:05:13.833Z,12.70
2022-11-03T05:06:13.691Z,12.50
2022-11-03T05:07:14.078Z,12.70
2022-11-03T05:08:13.262Z,12.50
2022-11-03T05:09:13.238Z,12.60
2022-11-03T05:10:13.142Z,12.80
2022-11-03T05:11:12.973Z,12.50
2022-11-03T05:12:12.797Z,12.60
2022-11-03T05:13:14.009Z,12.80
2022-11-03T05:14:12.983Z,12.70
2022-11-03T05:15:12.820Z,12.60
2022-11-03T05:16:13.728Z,12.60
2022-11-03T05:17:13.868Z,12.70
2022-11-03T05:18:13.928Z,12.70
2022-11-03T05:19:12.881Z,12.70
2022-11-03T05:20:13.824Z,12.70
2022-11-03T05:21:13.930Z,12.60
2022-11-03T05:22:12.899Z,12.60
2022-11-03T05:23:13.143Z,12.70
2022-11-03T05:25:13.238Z,12.80
2022-11-03T05:26:13.120Z,12.60
2022-11-03T05:27:12.945Z,12.80
2022-11-03T05:28:12.859Z,12.80
2022-11-03T05:29:13.746Z,13.00
2022-11-03T05:30:13.617Z,12.80
2022-11-03T05:31:18.543Z,12.90
2022-11-03T05:32:13.548Z,12.80
2022-11-03T05:33:13.670Z,12.80
2022-11-03T05:34:13.907Z,12.80
2022-11-03T05:35:13.044Z,12.80
2022-11-03T05:36:12.989Z,12.90
2022-11-03T05:37:12.828Z,13.10
2022-11-03T05:38:14.110Z,13.00
2022-11-03T05:39:13.126Z,12.90
2022-11-03T05:40:12.937Z,12.80
2022-11-03T05:41:12.937Z,13.00
2022-11-03T05:42:12.814Z,12.90
2022-11-03T05:43:14.079Z,12.80
2022-11-03T05:44:13.007Z,12.70
2022-11-03T05:45:12.915Z,12.80
2022-11-03T05:46:12.858Z,12.80
2022-11-03T05:47:13.879Z,12.60
2022-11-03T05:48:13.883Z,12.70
2022-11-03T05:49:14.116Z,12.90
2022-11-03T05:50:13.137Z,12.90
2022-11-03T05:51:13.210Z,12.90
2022-11-03T05:52:13.093Z,12.60
2022-11-03T05:53:18.098Z,12.80
2022-11-03T05:54:17.047Z,12.70
2022-11-03T05:55:13.813Z,12.70
2022-11-03T05:56:13.712Z,12.70
2022-11-03T05:57:13.640Z,12.80
2022-11-03T05:58:13.639Z,13.00
2022-11-03T05:59:13.929Z,12.70
2022-11-03T06:00:12.873Z,12.80
2022-11-03T06:01:15.028Z,12.70
2022-11-03T06:02:13.198Z,12.70
2022-11-03T06:03:13.373Z,13.00
2022-11-03T06:04:13.312Z,12.90
2022-11-03T06:05:13.221Z,12.80
2022-11-03T06:06:33.424Z,12.70
2022-11-03T06:07:13.752Z,12.80
2022-11-03T06:08:13.820Z,12.70
2022-11-03T06:09:13.910Z,12.80
2022-11-03T06:10:13.020Z,12.80
2022-11-03T06:11:12.884Z,12.80
2022-11-03T06:12:13.823Z,13.00
2022-11-03T06:13:13.699Z,12.70
2022-11-03T06:14:13.508Z,12.70
2022-11-03T06:15:13.500Z,12.70
2022-11-03T06:16:13.320Z,12.70
2022-11-03T06:17:14.267Z,12.70
2022-11-03T06:18:13.528Z,12.80
2022-11-03T06:19:23.610Z,12.90
2022-11-03T06:20:14.234Z,12.70
2022-11-03T06:21:13.143Z,12.80
2022-11-03T06:22:13.705Z,13.20
2022-11-03T06:23:13.634Z,13.40
2022-11-03T06:24:13.930Z,13.70
2022-11-03T06:25:12.927Z,13.50
2022-11-03T06:26:12.961Z,13.60
2022-11-03T06:27:12.952Z,14.00
2022-11-03T06:28:13.070Z,13.50
2022-11-03T06:29:13.047Z,13.50
2022-11-03T06:30:13.085Z,13.70
2022-11-03T06:31:12.958Z,13.80
2022-11-03T06:32:12.824Z,13.70
2022-11-03T06:33:13.770Z,13.70
2022-11-03T06:34:13.736Z,13.50
2022-11-03T06:35:13.858Z,14.00
2022-11-03T06:36:13.794Z,13.50
2022-11-03T06:37:13.792Z,13.00
2022-11-03T06:38:13.656Z,13.00
2022-11-03T06:39:13.834Z,13.30
2022-11-03T06:40:13.764Z,13.10
2022-11-03T06:41:13.698Z,13.20
2022-11-03T06:42:13.621Z,13.00
2022-11-03T06:43:13.793Z,13.30
2022-11-03T06:44:14.043Z,13.10
2022-11-03T06:45:13.405Z,12.90
2022-11-03T06:46:13.957Z,13.20
2022-11-03T06:47:14.914Z,13.30
2022-11-03T06:48:13.461Z,13.30
2022-11-03T06:49:14.525Z,13.30
2022-11-03T06:50:13.774Z,13.30
2022-11-03T06:51:14.221Z,13.20
2022-11-03T06:52:13.995Z,13.60
2022-11-03T06:53:14.840Z,13.40
2022-11-03T06:54:13.833Z,13.30
2022-11-03T06:55:16.946Z,13.30
2022-11-03T06:56:13.333Z,13.40
2022-11-03T06:57:13.279Z,13.50
2022-11-03T06:58:13.159Z,13.40
2022-11-03T06:59:12.964Z,13.50
2022-11-03T07:00:33.101Z,13.20
2022-11-03T07:01:13.715Z,13.40
2022-11-03T07:02:14.232Z,13.30
2022-11-03T07:03:13.343Z,13.30
2022-11-03T07:04:13.388Z,13.50
2022-11-03T07:05:13.841Z,13.40
2022-11-03T07:06:13.894Z,13.40
2022-11-03T07:07:12.898Z,13.20
2022-11-03T07:08:12.900Z,13.20
2022-11-03T07:09:12.758Z,13.40
2022-11-03T07:10:13.645Z,13.40
2022-11-03T07:11:14.234Z,13.40
2022-11-03T07:12:13.202Z,13.60
2022-11-03T07:13:18.277Z,13.30
2022-11-03T07:14:13.145Z,13.50
2022-11-03T07:15:13.373Z,13.40
2022-11-03T07:16:16.206Z,13.60
2022-11-03T07:17:13.884Z,13.20
2022-11-03T07:18:19.147Z,13.20
2022-11-03T07:19:13.209Z,13.20
2022-11-03T07:20:13.473Z,13.30
2022-11-03T07:21:13.351Z,13.60
2022-11-03T07:22:13.235Z,13.60
2022-11-03T07:23:13.155Z,13.40
2022-11-03T07:24:13.143Z,13.60
2022-11-03T07:25:13.259Z,13.50
2022-11-03T07:26:13.129Z,13.80
2022-11-03T07:27:13.524Z,13.80
2022-11-03T07:28:13.427Z,13.40
2022-11-03T07:29:13.231Z,13.60
2022-11-03T07:30:13.171Z,13.60
2022-11-03T07:31:16.240Z,13.40
2022-11-03T07:32:13.694Z,13.60
2022-11-03T07:33:13.852Z,13.80
2022-11-03T07:34:13.755Z,13.90
2022-11-03T07:35:13.904Z,13.70
2022-11-03T07:36:17.875Z,13.60
2022-11-03T07:37:14.097Z,13.70
2022-11-03T07:38:13.147Z,13.70
2022-11-03T07:39:12.983Z,13.70
2022-11-03T07:40:14.606Z,13.60
2022-11-03T07:41:13.579Z,13.90
2022-11-03T07:42:13.754Z,13.60
2022-11-03T07:43:14.008Z,13.60
2022-11-03T07:44:12.959Z,13.70
2022-11-03T07:45:12.947Z,13.70
2022-11-03T07:46:13.096Z,13.70
2022-11-03T07:47:13.130Z,13.70
2022-11-03T07:48:13.030Z,13.60
2022-11-03T07:49:13.127Z,13.60
2022-11-03T07:50:12.954Z,13.80
2022-11-03T07:51:13.160Z,13.60
2022-11-03T07:52:12.985Z,13.70
2022-11-03T07:53:13.284Z,13.70
2022-11-03T07:54:13.276Z,13.70
2022-11-03T07:55:13.148Z,13.80
2022-11-03T07:56:13.082Z,13.50
2022-11-03T07:57:13.392Z,13.60
2022-11-03T07:58:13.323Z,13.60
2022-11-03T07:59:13.434Z,13.70
2022-11-03T08:00:13.467Z,13.80
2022-11-03T08:01:13.472Z,13.70
2022-11-03T08:02:13.610Z,13.90
2022-11-03T08:03:13.786Z,13.80
2022-11-03T08:04:13.847Z,13.60
2022-11-03T08:05:14.129Z,13.80
2022-11-03T08:06:14.701Z,13.80
2022-11-03T08:07:13.277Z,13.90
2022-11-03T08:08:13.122Z,13.60
2022-11-03T08:09:13.131Z,13.70
2022-11-03T08:10:13.074Z,13.90
2022-11-03T08:12:13.016Z,13.70
2022-11-03T08:13:12.899Z,13.70
2022-11-03T08:14:13.239Z,13.90
2022-11-03T08:16:33.160Z,14.10
2022-11-03T08:17:13.321Z,14.10
2022-11-03T08:18:13.367Z,14.20
2022-11-03T08:19:50.224Z,14.00
2022-11-03T08:20:13.716Z,14.00
2022-11-03T08:21:13.794Z,14.00
2022-11-03T08:22:13.905Z,14.10
2022-11-03T08:23:25.241Z,14.10
2022-11-03T08:24:13.289Z,14.10
2022-11-03T08:25:13.097Z,14.20
2022-11-03T08:26:28.812Z,14.20
2022-11-03T08:27:14.258Z,14.10
2022-11-03T08:28:18.675Z,14.10
2022-11-03T08:29:13.621Z,13.90
2022-11-03T08:30:37.227Z,14.20
2022-11-03T08:31:13.539Z,14.20
2022-11-03T08:32:13.806Z,14.20
2022-11-03T08:33:14.148Z,14.20
2022-11-03T08:34:13.025Z,14.40
2022-11-03T08:35:18.144Z,14.20
2022-11-03T08:36:18.452Z,14.10
2022-11-03T08:37:13.611Z,14.30
2022-11-03T08:38:13.654Z,14.20
2022-11-03T08:39:13.761Z,14.50
2022-11-03T08:40:13.753Z,14.30
2022-11-03T08:41:14.040Z,14.30
2022-11-03T08:42:12.983Z,14.30
2022-11-03T08:43:12.900Z,14.30
2022-11-03T08:44:12.929Z,14.50
2022-11-03T08:45:12.968Z,14.50
2022-11-03T08:46:17.707Z,14.30
2022-11-03T08:47:13.353Z,14.30
2022-11-03T08:48:13.443Z,15.10
2022-11-03T08:49:33.751Z,15.00
2022-11-03T08:50:43.885Z,14.80
2022-11-03T08:51:13.059Z,15.00
2022-11-03T08:53:18.574Z,15.00
2022-11-03T08:54:13.880Z,15.60
2022-11-03T08:56:16.184Z,15.30
2022-11-03T08:57:13.106Z,15.10
2022-11-03T08:58:13.189Z,15.00
2022-11-03T08:59:14.760Z,15.30
2022-11-03T09:00:13.771Z,15.10
2022-11-03T09:01:14.181Z,15.20
2022-11-03T09:02:13.179Z,15.60
2022-11-03T09:03:13.321Z,15.60
2022-11-03T09:04:13.306Z,15.70
2022-11-03T09:05:13.255Z,15.40
2022-11-03T09:06:13.450Z,15.60
2022-11-03T09:07:13.788Z,15.40
2022-11-03T09:10:22.207Z,15.40
2022-11-03T09:11:12.806Z,15.80
2022-11-03T09:12:13.932Z,15.70
2022-11-03T09:13:12.865Z,15.70
2022-11-03T09:14:13.853Z,15.90
2022-11-03T09:15:13.230Z,15.60
2022-11-03T09:16:13.135Z,15.50
2022-11-03T09:17:13.253Z,15.80
2022-11-03T09:18:13.163Z,15.70
2022-11-03T09:19:13.436Z,15.80
2022-11-03T09:20:13.452Z,16.10
2022-11-03T09:21:13.691Z,16.30
2022-11-03T09:22:14.116Z,16.10
2022-11-03T09:23:13.344Z,16.30
2022-11-03T09:24:13.660Z,15.90
2022-11-03T09:25:13.746Z,16.00
2022-11-03T09:26:13.727Z,16.00
2022-11-03T09:27:13.747Z,16.30
2022-11-03T09:28:13.918Z,16.20
2022-11-03T09:29:13.038Z,16.40
2022-11-03T09:30:14.386Z,16.70
2022-11-03T09:31:13.826Z,16.60
2022-11-03T09:32:23.761Z,16.90
2022-11-03T09:33:13.063Z,16.20
2022-11-03T09:34:12.923Z,16.60
2022-11-03T09:35:12.920Z,16.50
2022-11-03T09:36:12.958Z,16.30
2022-11-03T09:37:12.961Z,16.20
2022-11-03T09:38:13.695Z,16.00
2022-11-03T09:39:13.887Z,16.90
2022-11-03T09:40:13.097Z,16.90
2022-11-03T09:41:25.026Z,17.00
2022-11-03T09:42:13.251Z,16.20
2022-11-03T09:43:13.473Z,16.80
2022-11-03T09:44:13.361Z,16.90
2022-11-03T09:45:13.299Z,16.70
2022-11-03T09:46:13.474Z,17.00
2022-11-03T09:47:13.987Z,16.70
2022-11-03T09:48:13.880Z,16.60
2022-11-03T09:49:12.870Z,16.80
2022-11-03T09:50:14.322Z,17.00
2022-11-03T09:51:13.329Z,17.20
2022-11-03T09:52:13.269Z,16.90
2022-11-03T09:53:13.398Z,16.60
2022-11-03T09:54:13.306Z,16.90
2022-11-03T09:55:13.370Z,16.80
2022-11-03T09:56:13.409Z,17.10
2022-11-03T09:57:13.311Z,17.00
2022-11-03T09:58:13.253Z,17.10
2022-11-03T09:59:13.699Z,17.10
2022-11-03T10:00:13.644Z,16.90
2022-11-03T10:01:13.893Z,16.90
2022-11-03T10:02:13.027Z,16.70
2022-11-03T10:03:13.294Z,17.10
2022-11-03T10:05:13.038Z,16.50
2022-11-03T10:06:15.509Z,16.50
2022-11-03T10:07:13.681Z,16.70
2022-11-03T10:08:17.022Z,17.40
2022-11-03T10:09:13.325Z,16.90
2022-11-03T10:10:13.274Z,16.80
2022-11-03T10:11:13.329Z,17.30
2022-11-03T10:12:21.678Z,16.80
2022-11-03T10:13:13.736Z,17.00
2022-11-03T10:14:13.954Z,16.80
2022-11-03T10:15:12.853Z,16.20
2022-11-03T10:16:13.854Z,15.80
2022-11-03T10:17:13.830Z,16.30
2022-11-03T10:18:14.159Z,16.00
2022-11-03T10:19:13.083Z,16.10
2022-11-03T10:20:13.202Z,16.10
2022-11-03T10:21:13.154Z,16.00
2022-11-03T10:22:26.982Z,16.00
2022-11-03T10:23:12.973Z,16.00
2022-11-03T10:24:12.863Z,16.10
2022-11-03T10:25:23.982Z,15.90
2022-11-03T10:26:28.655Z,15.80
2022-11-03T10:27:13.578Z,16.20
2022-11-03T10:28:14.857Z,16.10
2022-11-03T10:29:13.294Z,16.10
2022-11-03T10:30:13.264Z,15.90
2022-11-03T10:31:18.445Z,15.80
2022-11-03T10:32:13.352Z,15.80
2022-11-03T10:33:14.387Z,16.00
2022-11-03T10:34:13.661Z,16.20
2022-11-03T10:35:13.498Z,16.10
2022-11-03T10:36:13.489Z,16.00
2022-11-03T10:37:14.686Z,15.90
2022-11-03T10:38:38.991Z,15.80
2022-11-03T10:39:12.923Z,16.10
2022-11-03T10:40:22.395Z,16.40
2022-11-03T10:41:18.338Z,16.40
2022-11-03T10:42:13.373Z,16.70
2022-11-03T10:43:13.438Z,16.50
2022-11-03T10:44:13.450Z,16.10
2022-11-03T10:45:13.454Z,16.20
2022-11-03T10:46:29.744Z,16.40
2022-11-03T10:47:13.851Z,16.40
2022-11-03T10:48:14.152Z,16.30
2022-11-03T10:49:13.516Z,16.40
2022-11-03T10:50:13.813Z,16.40
2022-11-03T10:51:13.815Z,16.20
2022-11-03T10:52:14.047Z,16.20
2022-11-03T10:53:13.232Z,16.30
2022-11-03T10:54:18.480Z,15.90
2022-11-03T10:55:13.519Z,15.60
2022-11-03T10:56:14.109Z,15.80
2022-11-03T10:57:13.211Z,15.90
2022-11-03T10:58:13.285Z,15.90
2022-11-03T10:59:13.420Z,16.10
2022-11-03T11:00:13.489Z,16.40
2022-11-03T11:01:13.738Z,16.00
2022-11-03T11:02:14.032Z,15.80
2022-11-03T11:03:16.445Z,15.70
2022-11-03T11:04:14.031Z,15.60
2022-11-03T11:05:13.070Z,15.70
2022-11-03T11:06:13.101Z,16.30
2022-11-03T11:07:13.274Z,16.30
2022-11-03T11:08:13.384Z,16.00
2022-11-03T11:09:13.352Z,16.00
2022-11-03T11:10:13.220Z,15.60
2022-11-03T11:11:18.283Z,15.50
2022-11-03T11:12:13.705Z,16.10
2022-11-03T11:13:13.549Z,16.10
2022-11-03T11:14:18.487Z,16.10
2022-11-03T11:15:13.509Z,15.70
2022-11-03T11:16:13.362Z,15.80
2022-11-03T11:17:13.575Z,16.00
2022-11-03T11:18:13.909Z,15.70
2022-11-03T11:19:12.873Z,15.70
2022-11-03T11:20:13.813Z,15.70
2022-11-03T11:21:13.700Z,15.70
2022-11-03T11:22:13.684Z,15.80
2022-11-03T11:23:13.952Z,15.90
2022-11-03T11:24:12.914Z,15.80
2022-11-03T11:25:12.788Z,16.00
2022-11-03T11:26:14.063Z,16.00
2022-11-03T11:27:14.226Z,16.60
2022-11-03T11:28:13.083Z,16.30
2022-11-03T11:29:13.002Z,16.00
2022-11-03T11:30:17.866Z,15.80
2022-11-03T11:31:14.099Z,16.30
2022-11-03T11:32:12.901Z,16.10
2022-11-03T11:33:12.809Z,15.70
2022-11-03T11:34:13.697Z,16.00
2022-11-03T11:35:13.770Z,16.00
2022-11-03T11:36:13.870Z,16.70
2022-11-03T11:37:13.941Z,17.10
2022-11-03T11:38:12.908Z,17.30
2022-11-03T11:39:13.061Z,17.40
2022-11-03T11:40:13.032Z,17.80
2022-11-03T11:41:12.945Z,17.60
2022-11-03T11:42:13.446Z,17.90
2022-11-03T11:43:14.106Z,18.10
2022-11-03T11:44:13.202Z,19.10
2022-11-03T11:45:13.282Z,19.10
2022-11-03T11:46:13.701Z,18.90
2022-11-03T11:47:14.200Z,19.60
2022-11-03T11:48:18.399Z,19.70
2022-11-03T11:49:12.825Z,19.50
2022-11-03T11:50:13.739Z,19.80
2022-11-03T11:51:14.155Z,19.70
2022-11-03T11:52:18.738Z,19.90
2022-11-03T11:53:13.026Z,20.00
2022-11-03T11:54:18.143Z,19.80
2022-11-03T11:55:13.604Z,19.90
2022-11-03T11:56:13.514Z,20.40
2022-11-03T11:57:13.454Z,19.40
2022-11-03T11:58:13.480Z,19.50
2022-11-03T11:59:13.441Z,19.80
2022-11-03T12:00:13.579Z,19.70
2022-11-03T12:01:13.579Z,19.90
2022-11-03T12:02:13.702Z,20.60
2022-11-03T12:03:13.926Z,20.60
2022-11-03T12:04:12.918Z,20.80
2022-11-03T12:05:12.918Z,20.50
2022-11-03T12:06:12.945Z,20.50
2022-11-03T12:07:13.114Z,19.80
2022-11-03T12:08:13.138Z,19.70
2022-11-03T12:09:13.158Z,19.90
2022-11-03T12:10:13.374Z,19.80
2022-11-03T12:11:13.420Z,20.30
2022-11-03T12:12:13.582Z,19.50
2022-11-03T12:13:18.746Z,20.40
2022-11-03T12:14:13.728Z,20.00
2022-11-03T12:15:13.651Z,20.70
2022-11-03T12:16:13.738Z,20.40
2022-11-03T12:17:13.785Z,19.70
2022-11-03T12:18:13.804Z,20.00
2022-11-03T12:19:13.706Z,19.50
2022-11-03T12:20:13.617Z,19.20
2022-11-03T12:21:13.713Z,18.60
2022-11-03T12:22:13.820Z,18.10
2022-11-03T12:23:14.098Z,18.30
2022-11-03T12:24:13.135Z,18.30
2022-11-03T12:25:13.048Z,18.10
2022-11-03T12:26:12.852Z,18.70
2022-11-03T12:27:13.795Z,18.70
2022-11-03T12:28:23.837Z,18.20
2022-11-03T12:29:13.716Z,18.40
2022-11-03T12:30:13.713Z,18.60
2022-11-03T12:31:13.742Z,18.80
2022-11-03T12:32:26.065Z,18.60
2022-11-03T12:33:14.148Z,18.20
2022-11-03T12:34:13.339Z,18.20
2022-11-03T12:35:13.575Z,18.20
2022-11-03T12:36:13.709Z,18.60
2022-11-03T12:37:13.903Z,19.10
2022-11-03T12:38:14.750Z,19.20
2022-11-03T12:39:17.945Z,19.00
2022-11-03T12:40:12.924Z,18.70
2022-11-03T12:41:12.949Z,18.80
2022-11-03T12:42:12.955Z,18.70
2022-11-03T12:43:17.800Z,19.00
2022-11-03T12:44:18.787Z,18.90
2022-11-03T12:45:13.986Z,18.30
2022-11-03T12:46:13.087Z,18.00
2022-11-03T12:47:12.904Z,18.40
2022-11-03T12:48:13.015Z,17.70
2022-11-03T12:49:13.179Z,17.70
2022-11-03T12:50:13.423Z,17.70
2022-11-03T12:51:13.357Z,17.90
2022-11-03T12:52:18.344Z,17.60
2022-11-03T12:53:13.285Z,17.50
2022-11-03T12:54:13.321Z,17.30
2022-11-03T12:55:13.569Z,17.60
2022-11-03T12:56:14.078Z,18.50
2022-11-03T12:57:13.326Z,18.10
2022-11-03T12:58:13.635Z,17.80
2022-11-03T12:59:14.025Z,18.60
2022-11-03T13:00:13.087Z,18.50
2022-11-03T13:01:18.369Z,19.40
2022-11-03T13:02:13.695Z,18.40
2022-11-03T13:03:13.933Z,18.60
2022-11-03T13:04:12.961Z,18.70
2022-11-03T13:05:13.118Z,18.40
2022-11-03T13:06:13.111Z,19.10
2022-11-03T13:07:13.491Z,19.20
2022-11-03T13:08:13.793Z,18.40